Terminal Aerodrome Forecast
Issued by NWS Portland, OR

Home | Current Version | Previous Version | Text Only | Print | Product List | Glossary On
Versions: 1 2 3 4 5 6 7 8 9 10 11 12 13 14 15 16 17 18 19 20 21 22 23 24 25 26 27 28 29 30 31 32 33 34 35 36 37 38 39 40 41 42 43 44 45 46 47 48 49
000
FTUS46 KPQR 031006 AAA
TAFAST
TAF AMD
KAST 031006Z 0310/0406 12003KT 6SM BR FEW030
      TEMPO 0312/0315 5SM BR FEW002
     FM031800 26005KT P6SM FEW025
     FM032100 28008KT P6SM FEW030
     FM040100 30005KT P6SM FEW030=

USA.gov is the U.S. government's official web portal to all federal, state and local government web resources and services.